MMTJ

General Abelardo L. Rodríguez International Airport

Tijuana, Mexico
TAF COR MMTJ 171150Z 1712/1818 00000KT 5SM HZ BKN012 TX20/1721Z TN12/1712Z TEMPO 1712/1716 3SM BR HZ BKN008 FM171800 32012KT P6SM SCT030 BKN250 FM180600 30005KT P6SM SCT020 BECMG 1808/1810 BKN015 TEMPO 1811/1815 3SM BR BKN008 FM181700 32010KT P6SM SCT030 BKN250
Issued Valid From Valid To
Dec-17 @ 11:50 UTC
(57 minutes ago)
Dec-17 @ 12:00 UTC
(47 minutes ago)
Dec-18 @ 18:00 UTC
(-1 days ago)
Dec-17 @ 12:00 to Dec-17 @ 18:00
TAF COR MMTJ 171150Z 1712/1818 00000KT 5SM HZ BKN012 TX20/1721Z TN12/1712Z
Visibility Clouds Conditions
5 miles
  • Broken at 1,200' AGL
  • Haze
Temporary Dec-17 @ 12:00 to Dec-17 @ 16:00
TEMPO 1712/1716 3SM BR HZ BKN008
Visibility Clouds Conditions
3 miles
  • Broken at 800' AGL
  • Mist
  • Haze
From Dec-17 @ 18:00 to Dec-18 @ 06:00
FM171800 32012KT P6SM SCT030 BKN250
Wind Visibility Clouds
320° at 12 knots Greater than 6 miles
  • Scattered at 3,000' AGL
  • Broken at 25,000' AGL
From Dec-18 @ 06:00 to Dec-18 @ 08:00
FM180600 30005KT P6SM SCT020
Wind Visibility Clouds
300° at 5 knots Greater than 6 miles
  • Scattered at 2,000' AGL
Becoming Dec-18 @ 08:00 to Dec-18 @ 17:00
BECMG 1808/1810 BKN015
Wind Visibility Clouds
300° at 5 knots Greater than 6 miles
  • Broken at 1,500' AGL
Temporary Dec-18 @ 11:00 to Dec-18 @ 15:00
TEMPO 1811/1815 3SM BR BKN008
Visibility Clouds Conditions
3 miles
  • Broken at 800' AGL
  • Mist
From Dec-18 @ 17:00 to Dec-18 @ 18:00
FM181700 32010KT P6SM SCT030 BKN250
Wind Visibility Clouds
320° at 10 knots Greater than 6 miles
  • Scattered at 3,000' AGL
  • Broken at 25,000' AGL
TAF COR MMTJ 171150Z 1712/1818 00000KT 5SM HZ BKN012 TX20/1721Z TN12/1712Z TEMPO 1712/1716 3SM BR HZ BKN008 FM171800 32012KT P6SM SCT030 BKN250 FM180600 30005KT P6SM SCT020 BECMG 1808/1810 BKN015 TEMPO 1811/1815 3SM BR BKN008 FM181700 32010KT P6SM SCT030 BKN250
Issued Dec-17 @ 11:50 UTC
(57 minutes ago)
Valid From Dec-17 @ 12:00 UTC
(47 minutes ago)
Valid To Dec-18 @ 18:00 UTC
(-1 days ago)
Dec-17 @ 12:00 - Dec-17 @ 18:00
Clouds
  • Broken at 1,200' AGL
Conditions
  • Haze
Temporary Dec-17 @ 12:00 - Dec-17 @ 16:00
Clouds
  • Broken at 800' AGL
Conditions
  • Mist
  • Haze
From Dec-17 @ 18:00 - Dec-18 @ 06:00
Wind Visibility
320° at 12 knots Greater than 6 miles
Clouds
  • Scattered at 3,000' AGL
  • Broken at 25,000' AGL
From Dec-18 @ 06:00 - Dec-18 @ 08:00
Wind Visibility
300° at 5 knots Greater than 6 miles
Clouds
  • Scattered at 2,000' AGL
Becoming Dec-18 @ 08:00 - Dec-18 @ 17:00
Wind Visibility
300° at 5 knots Greater than 6 miles
Clouds
  • Broken at 1,500' AGL
Temporary Dec-18 @ 11:00 - Dec-18 @ 15:00
Clouds
  • Broken at 800' AGL
Conditions
  • Mist
From Dec-18 @ 17:00 - Dec-18 @ 18:00
Wind Visibility
320° at 10 knots Greater than 6 miles
Clouds
  • Scattered at 3,000' AGL
  • Broken at 25,000' AGL